createdAt,value
2022-10-13T00:00:49.573Z,63.93
2022-10-13T00:04:05.776Z,63.96
2022-10-13T00:07:08.619Z,64.04
2022-10-13T00:10:11.572Z,64.14
2022-10-13T00:13:15.030Z,64.06
2022-10-13T00:16:20.651Z,64.04
2022-10-13T00:19:23.422Z,64.02
2022-10-13T00:22:27.712Z,64.15
2022-10-13T00:25:30.543Z,64.22
2022-10-13T00:28:33.438Z,64.23
2022-10-13T00:31:36.338Z,64.12
2022-10-13T00:34:40.392Z,64.07
2022-10-13T00:37:43.209Z,64.21
2022-10-13T00:40:56.365Z,64.14
2022-10-13T00:44:26.874Z,64.04
2022-10-13T00:47:40.718Z,64.04
2022-10-13T00:50:44.189Z,63.86
2022-10-13T00:53:48.471Z,63.91
2022-10-13T00:56:53.536Z,64.05
2022-10-13T00:59:57.035Z,63.98
2022-10-13T01:03:01.018Z,64.02
2022-10-13T01:06:05.781Z,64.05
2022-10-13T01:09:08.626Z,63.98
2022-10-13T01:12:20.187Z,63.92
2022-10-13T01:15:39.702Z,63.75
2022-10-13T01:18:59.876Z,63.70
2022-10-13T01:22:21.420Z,63.73
2022-10-13T01:25:30.393Z,63.74
2022-10-13T01:28:53.409Z,63.77
2022-10-13T01:32:06.245Z,63.68
2022-10-13T01:35:36.002Z,63.72
2022-10-13T01:38:49.803Z,63.53
2022-10-13T01:42:00.867Z,63.78
2022-10-13T01:45:04.494Z,63.73
2022-10-13T01:48:08.897Z,63.75
2022-10-13T01:51:20.739Z,63.77
2022-10-13T01:54:27.132Z,63.77
2022-10-13T01:57:38.241Z,63.55
2022-10-13T02:00:48.824Z,63.76
2022-10-13T02:04:10.553Z,63.85
2022-10-13T02:07:19.858Z,63.78
2022-10-13T02:10:31.045Z,63.87
2022-10-13T02:13:36.833Z,63.50
2022-10-13T02:16:45.439Z,63.90
2022-10-13T02:19:48.571Z,63.85
2022-10-13T02:22:57.939Z,63.93
2022-10-13T02:26:00.999Z,63.90
2022-10-13T02:29:12.475Z,63.74
2022-10-13T02:32:15.372Z,63.81
2022-10-13T02:35:18.558Z,63.80
2022-10-13T02:38:21.545Z,64.01
2022-10-13T02:41:24.704Z,63.88
2022-10-13T02:44:27.586Z,63.87
2022-10-13T02:47:30.538Z,63.88
2022-10-13T02:50:33.405Z,63.61
2022-10-13T02:53:36.230Z,63.69
2022-10-13T02:56:39.098Z,63.55
2022-10-13T02:59:41.918Z,63.59
2022-10-13T03:02:44.710Z,63.59
2022-10-13T03:05:47.587Z,63.81
2022-10-13T03:08:50.718Z,63.78
2022-10-13T03:11:53.818Z,63.99
2022-10-13T03:14:57.504Z,63.86
2022-10-13T03:18:00.329Z,63.92
2022-10-13T03:21:06.490Z,63.93
2022-10-13T03:24:09.500Z,63.96
2022-10-13T03:27:12.533Z,63.94
2022-10-13T03:30:15.414Z,63.73
2022-10-13T03:33:18.297Z,63.83
2022-10-13T03:36:21.122Z,63.92
2022-10-13T03:39:25.397Z,63.80
2022-10-13T03:42:28.221Z,63.80
2022-10-13T03:45:31.436Z,63.79
2022-10-13T03:48:36.170Z,63.94
2022-10-13T03:51:39.819Z,64.14
2022-10-13T03:54:42.619Z,63.85
2022-10-13T03:57:45.480Z,63.81
2022-10-13T04:00:48.440Z,64.10
2022-10-13T04:03:54.316Z,63.71
2022-10-13T04:06:57.587Z,63.90
2022-10-13T04:10:00.434Z,63.82
2022-10-13T04:13:05.672Z,64.02
2022-10-13T04:16:18.938Z,63.85
2022-10-13T04:19:21.887Z,63.85
2022-10-13T04:22:24.694Z,63.68
2022-10-13T04:25:27.604Z,63.72
2022-10-13T04:28:30.636Z,63.86
2022-10-13T04:31:34.370Z,63.84
2022-10-13T04:34:37.407Z,63.95
2022-10-13T04:37:44.974Z,63.81
2022-10-13T04:40:48.324Z,64.05
2022-10-13T04:43:52.276Z,63.91
2022-10-13T04:46:55.486Z,63.78
2022-10-13T04:49:58.275Z,63.83
2022-10-13T04:53:01.146Z,63.95
2022-10-13T04:56:09.671Z,63.91
2022-10-13T04:59:12.641Z,64.18
2022-10-13T05:02:15.540Z,64.07
2022-10-13T05:05:18.444Z,64.16
2022-10-13T05:08:21.718Z,64.22
2022-10-13T05:11:26.631Z,64.11
2022-10-13T05:14:31.110Z,64.28
2022-10-13T05:17:36.288Z,64.08
2022-10-13T05:20:44.019Z,64.27
2022-10-13T05:23:47.123Z,64.45
2022-10-13T05:26:49.924Z,64.49
2022-10-13T05:29:52.782Z,64.47
2022-10-13T05:32:55.713Z,64.61
2022-10-13T05:36:15.078Z,64.66
2022-10-13T05:39:18.004Z,64.77
2022-10-13T05:42:21.191Z,64.64
2022-10-13T05:45:24.485Z,64.61
2022-10-13T05:48:27.979Z,64.70
2022-10-13T05:51:37.196Z,64.91
2022-10-13T05:54:46.200Z,65.13
2022-10-13T05:57:52.268Z,65.24
2022-10-13T06:00:55.798Z,65.43
2022-10-13T06:04:03.996Z,65.25
2022-10-13T06:07:08.407Z,65.65
2022-10-13T06:10:11.931Z,65.67
2022-10-13T06:13:14.831Z,65.81
2022-10-13T06:16:17.908Z,66.03
2022-10-13T06:19:21.835Z,66.02
2022-10-13T06:22:24.709Z,66.12
2022-10-13T06:25:27.557Z,66.39
2022-10-13T06:28:30.400Z,66.46
2022-10-13T06:31:33.269Z,66.45
2022-10-13T06:34:36.055Z,66.83
2022-10-13T06:37:39.198Z,66.72
2022-10-13T06:40:46.172Z,67.01
2022-10-13T06:43:49.626Z,67.02
2022-10-13T06:46:53.054Z,67.25
2022-10-13T06:49:56.379Z,67.37
2022-10-13T06:52:59.439Z,67.73
2022-10-13T06:56:04.570Z,67.61
2022-10-13T06:59:07.446Z,67.84
2022-10-13T07:02:11.422Z,67.89
2022-10-13T07:05:14.370Z,67.95
2022-10-13T07:08:17.888Z,68.14
2022-10-13T07:11:20.890Z,68.31
2022-10-13T07:14:27.532Z,68.38
2022-10-13T07:17:30.314Z,68.43
2022-10-13T07:20:33.758Z,68.63
2022-10-13T07:23:36.560Z,68.59
2022-10-13T07:26:39.330Z,68.74
2022-10-13T07:29:42.240Z,68.72
2022-10-13T07:32:45.131Z,68.72
2022-10-13T07:35:47.925Z,68.83
2022-10-13T07:38:50.833Z,68.77
2022-10-13T07:41:53.741Z,68.77
2022-10-13T07:44:56.621Z,68.81
2022-10-13T07:48:01.851Z,68.91
2022-10-13T07:51:07.542Z,69.00
2022-10-13T07:54:11.030Z,68.90
2022-10-13T07:57:14.101Z,68.97
2022-10-13T08:00:17.527Z,69.10
2022-10-13T08:03:20.377Z,69.08
2022-10-13T08:06:23.305Z,69.02
2022-10-13T08:09:29.991Z,69.02
2022-10-13T08:12:35.475Z,69.08
2022-10-13T08:15:42.868Z,69.10
2022-10-13T08:18:46.419Z,69.17
2022-10-13T08:21:58.317Z,69.21
2022-10-13T08:25:02.507Z,69.28
2022-10-13T08:28:22.982Z,69.33
2022-10-13T08:31:29.064Z,69.19
2022-10-13T08:34:34.031Z,69.26
2022-10-13T08:37:36.982Z,69.44
2022-10-13T08:40:39.939Z,69.48
2022-10-13T08:44:24.759Z,69.58
2022-10-13T08:47:48.306Z,69.61
2022-10-13T08:50:54.971Z,69.57
2022-10-13T08:53:59.220Z,69.47
2022-10-13T08:57:02.072Z,69.46
2022-10-13T09:00:07.257Z,69.41
2022-10-13T09:03:29.043Z,69.38
2022-10-13T09:06:36.827Z,69.15
2022-10-13T09:09:40.099Z,69.22
2022-10-13T09:12:42.987Z,69.09
2022-10-13T09:15:50.318Z,69.36
2022-10-13T09:18:53.116Z,69.33
2022-10-13T09:22:13.127Z,69.15
2022-10-13T09:25:20.056Z,69.27
2022-10-13T09:28:27.669Z,69.10
2022-10-13T09:31:32.312Z,69.03
2022-10-13T09:34:35.116Z,69.21
2022-10-13T09:37:41.627Z,69.06
2022-10-13T09:40:58.036Z,68.92
2022-10-13T09:44:11.745Z,68.93
2022-10-13T09:47:21.674Z,68.96
2022-10-13T09:50:27.813Z,68.92
2022-10-13T09:53:37.786Z,69.03
2022-10-13T09:56:49.347Z,69.08
2022-10-13T09:59:58.934Z,68.84
2022-10-13T10:03:10.712Z,68.77
2022-10-13T10:06:15.891Z,68.62
2022-10-13T10:09:41.590Z,68.62
2022-10-13T10:12:45.309Z,68.25
2022-10-13T10:16:20.714Z,68.03
2022-10-13T10:19:55.387Z,68.37
2022-10-13T10:23:11.234Z,68.26
2022-10-13T10:26:20.750Z,68.26
2022-10-13T10:29:39.054Z,68.91
2022-10-13T10:33:07.901Z,69.14
2022-10-13T10:36:19.913Z,68.51
2022-10-13T10:39:41.378Z,68.13
2022-10-13T10:42:58.994Z,67.83
2022-10-13T10:46:01.856Z,67.29
2022-10-13T10:49:35.173Z,67.09
2022-10-13T10:53:00.891Z,66.83
2022-10-13T10:56:07.789Z,66.83
2022-10-13T10:59:37.270Z,66.68
2022-10-13T11:02:55.308Z,66.47
2022-10-13T11:06:20.863Z,66.13
2022-10-13T11:09:42.745Z,66.13
2022-10-13T11:13:26.927Z,66.16
2022-10-13T11:16:40.103Z,65.94
2022-10-13T11:19:49.682Z,65.81
2022-10-13T11:22:58.522Z,65.61
2022-10-13T11:26:20.709Z,65.33
2022-10-13T11:29:51.523Z,65.42
2022-10-13T11:32:57.129Z,65.42
2022-10-13T11:36:27.728Z,65.41
2022-10-13T11:39:59.576Z,65.23
2022-10-13T11:43:37.348Z,65.17
2022-10-13T11:46:52.423Z,65.19
2022-10-13T11:50:04.285Z,65.08
2022-10-13T11:53:11.956Z,64.88
2022-10-13T11:56:31.871Z,64.95
2022-10-13T11:59:37.674Z,64.89
2022-10-13T12:02:49.111Z,64.94
2022-10-13T12:05:53.580Z,64.82
2022-10-13T12:08:56.434Z,64.66
2022-10-13T12:12:13.213Z,64.69
2022-10-13T12:15:31.196Z,64.61
2022-10-13T12:18:38.374Z,64.44
2022-10-13T12:21:56.329Z,64.49
2022-10-13T12:25:05.356Z,64.28
2022-10-13T12:28:19.250Z,64.12
2022-10-13T12:31:27.773Z,64.00
2022-10-13T12:34:34.526Z,64.12
2022-10-13T12:37:37.452Z,63.89
2022-10-13T12:40:40.599Z,63.92
2022-10-13T12:43:44.691Z,63.90
2022-10-13T12:46:53.476Z,63.94
2022-10-13T12:50:23.676Z,63.94
2022-10-13T12:53:28.829Z,63.82
2022-10-13T12:56:32.505Z,63.68
2022-10-13T12:59:43.049Z,63.59
2022-10-13T13:03:04.030Z,63.64
2022-10-13T13:06:13.435Z,63.66
2022-10-13T13:09:22.228Z,63.75
2022-10-13T13:12:28.028Z,63.67
2022-10-13T13:15:36.379Z,63.77
2022-10-13T13:18:41.794Z,63.70
2022-10-13T13:21:44.722Z,63.90
2022-10-13T13:24:49.444Z,63.97
2022-10-13T13:27:53.088Z,64.00
2022-10-13T13:30:55.856Z,64.12
2022-10-13T13:33:58.581Z,64.28
2022-10-13T13:37:02.638Z,64.36
2022-10-13T13:40:07.392Z,64.25
2022-10-13T13:43:10.125Z,64.37
2022-10-13T13:46:17.232Z,64.59
2022-10-13T13:49:19.987Z,64.61
2022-10-13T13:52:25.340Z,64.58
2022-10-13T13:55:29.665Z,64.65
2022-10-13T13:58:32.429Z,64.92
2022-10-13T14:01:35.794Z,64.77
2022-10-13T14:04:38.562Z,64.88
2022-10-13T14:07:41.440Z,64.92
2022-10-13T14:10:44.297Z,64.95
2022-10-13T14:13:48.085Z,65.04
2022-10-13T14:16:52.719Z,65.09
2022-10-13T14:19:55.608Z,65.22
2022-10-13T14:22:58.370Z,65.30
2022-10-13T14:26:05.914Z,65.31
2022-10-13T14:29:08.731Z,65.51
2022-10-13T14:32:12.176Z,65.55
2022-10-13T14:35:15.025Z,65.68
2022-10-13T14:38:18.250Z,65.61
2022-10-13T14:41:24.419Z,65.78
2022-10-13T14:44:27.217Z,65.88
2022-10-13T14:47:29.949Z,66.00
2022-10-13T14:50:32.765Z,66.08
2022-10-13T14:53:41.429Z,66.15
2022-10-13T14:56:44.915Z,66.21
2022-10-13T14:59:47.753Z,66.17
2022-10-13T15:02:50.528Z,66.36
2022-10-13T15:05:54.187Z,66.54
2022-10-13T15:08:59.461Z,66.61
2022-10-13T15:12:02.764Z,66.87
2022-10-13T15:15:05.991Z,66.97
2022-10-13T15:18:08.727Z,67.02
2022-10-13T15:21:12.148Z,67.01
2022-10-13T15:24:14.916Z,67.26
2022-10-13T15:27:18.281Z,67.31
2022-10-13T15:30:21.049Z,67.31
2022-10-13T15:33:23.900Z,67.49
2022-10-13T15:36:26.724Z,67.51
2022-10-13T15:39:29.589Z,67.57
2022-10-13T15:42:32.692Z,67.75
2022-10-13T15:45:36.038Z,67.90
2022-10-13T15:48:39.312Z,67.95
2022-10-13T15:51:42.173Z,68.00
2022-10-13T15:54:45.072Z,68.07
2022-10-13T15:57:47.946Z,68.07
2022-10-13T16:00:50.736Z,68.21
2022-10-13T16:03:55.245Z,68.42
2022-10-13T16:06:57.993Z,68.46
2022-10-13T16:10:00.990Z,68.50
2022-10-13T16:13:03.917Z,68.42
2022-10-13T16:16:07.604Z,68.70
2022-10-13T16:19:10.482Z,68.61
2022-10-13T16:22:13.567Z,68.70
2022-10-13T16:25:16.795Z,68.77
2022-10-13T16:28:19.718Z,68.81
2022-10-13T16:31:22.769Z,68.99
2022-10-13T16:34:26.108Z,69.00
2022-10-13T16:37:28.926Z,69.18
2022-10-13T16:40:32.477Z,69.20
2022-10-13T16:43:35.760Z,69.37
2022-10-13T16:46:38.814Z,69.44
2022-10-13T16:49:41.992Z,69.62
2022-10-13T16:52:47.256Z,69.63
2022-10-13T16:55:50.262Z,69.75
2022-10-13T16:58:55.679Z,69.76
2022-10-13T17:01:59.443Z,69.95
2022-10-13T17:05:02.382Z,70.02
2022-10-13T17:08:06.464Z,69.95
2022-10-13T17:11:15.706Z,70.16
2022-10-13T17:14:18.648Z,70.20
2022-10-13T17:17:21.732Z,70.23
2022-10-13T17:20:24.880Z,70.30
2022-10-13T17:23:29.262Z,70.47
2022-10-13T17:26:32.489Z,70.53
2022-10-13T17:29:35.276Z,70.47
2022-10-13T17:32:38.913Z,70.66
2022-10-13T17:35:41.757Z,70.71
2022-10-13T17:38:45.255Z,70.82
2022-10-13T17:41:48.133Z,70.98
2022-10-13T17:44:51.059Z,71.11
2022-10-13T17:47:53.943Z,71.06
2022-10-13T17:51:02.732Z,71.22
2022-10-13T17:54:08.233Z,71.26
2022-10-13T17:57:14.510Z,71.29
2022-10-13T18:00:18.095Z,71.42
2022-10-13T18:03:21.552Z,71.58
2022-10-13T18:06:24.485Z,71.41
2022-10-13T18:09:27.326Z,71.61
2022-10-13T18:12:30.117Z,71.60
2022-10-13T18:15:36.876Z,71.69
2022-10-13T18:18:39.876Z,71.71
2022-10-13T18:21:43.046Z,71.75
2022-10-13T18:24:46.347Z,71.79
2022-10-13T18:27:49.205Z,71.72
2022-10-13T18:30:52.051Z,71.90
2022-10-13T18:34:00.678Z,71.97
2022-10-13T18:37:05.656Z,71.95
2022-10-13T18:40:09.003Z,71.98
2022-10-13T18:43:11.848Z,71.96
2022-10-13T18:46:14.836Z,71.91
2022-10-13T18:49:20.608Z,71.85
2022-10-13T18:52:23.507Z,71.90
2022-10-13T18:55:26.404Z,71.78
2022-10-13T18:58:30.549Z,71.95
2022-10-13T19:01:35.139Z,71.89
2022-10-13T19:04:38.312Z,71.68
2022-10-13T19:07:41.345Z,71.82
2022-10-13T19:10:44.180Z,71.67
2022-10-13T19:13:48.369Z,71.67
2022-10-13T19:16:51.312Z,71.71
2022-10-13T19:19:56.352Z,71.75
2022-10-13T19:22:59.222Z,71.57
2022-10-13T19:26:15.254Z,71.68
2022-10-13T19:29:18.417Z,71.48
2022-10-13T19:32:21.357Z,71.53
2022-10-13T19:35:24.300Z,71.36
2022-10-13T19:38:27.361Z,71.33
2022-10-13T19:41:32.349Z,71.28
2022-10-13T19:44:35.376Z,71.28
2022-10-13T19:47:38.373Z,71.38
2022-10-13T19:50:44.138Z,71.33
2022-10-13T19:53:49.484Z,71.27
2022-10-13T19:56:52.534Z,71.20
2022-10-13T19:59:55.444Z,71.29
2022-10-13T20:02:58.362Z,71.29
2022-10-13T20:06:05.845Z,71.21
2022-10-13T20:09:14.705Z,71.23
2022-10-13T20:12:17.598Z,71.35
2022-10-13T20:15:20.623Z,71.14
2022-10-13T20:18:24.040Z,71.13
2022-10-13T20:21:27.749Z,71.02
2022-10-13T20:24:30.659Z,71.13
2022-10-13T20:27:34.037Z,70.93
2022-10-13T20:30:39.468Z,71.02
2022-10-13T20:33:43.401Z,70.87
2022-10-13T20:36:46.314Z,71.01
2022-10-13T20:39:49.199Z,70.85
2022-10-13T20:42:52.716Z,70.96
2022-10-13T20:46:01.254Z,71.17
2022-10-13T20:49:13.073Z,71.10
2022-10-13T20:52:16.571Z,70.98
2022-10-13T20:55:22.366Z,71.14
2022-10-13T20:58:29.879Z,71.20
2022-10-13T21:01:34.681Z,71.11
2022-10-13T21:04:37.620Z,71.03
2022-10-13T21:07:40.932Z,71.25
2022-10-13T21:10:45.265Z,71.19
2022-10-13T21:13:49.653Z,71.04
2022-10-13T21:16:54.226Z,71.16
2022-10-13T21:19:58.309Z,70.97
2022-10-13T21:23:02.218Z,71.00
2022-10-13T21:26:06.877Z,70.98
2022-10-13T21:29:10.072Z,71.04
2022-10-13T21:32:13.034Z,70.94
2022-10-13T21:35:16.597Z,71.11
2022-10-13T21:38:19.520Z,71.00
2022-10-13T21:41:23.562Z,70.94
2022-10-13T21:44:27.932Z,70.93
2022-10-13T21:47:32.500Z,70.95
2022-10-13T21:50:35.612Z,70.83
2022-10-13T21:53:38.445Z,71.01
2022-10-13T21:56:42.428Z,70.95
2022-10-13T21:59:45.668Z,70.84
2022-10-13T22:02:48.533Z,70.81
2022-10-13T22:05:56.408Z,70.95
2022-10-13T22:09:02.460Z,70.95
2022-10-13T22:12:05.690Z,71.00
2022-10-13T22:15:08.902Z,70.95
2022-10-13T22:18:11.768Z,70.87
2022-10-13T22:21:20.750Z,70.81
2022-10-13T22:24:23.616Z,70.89
2022-10-13T22:27:26.501Z,70.88
2022-10-13T22:30:29.389Z,70.88
2022-10-13T22:33:33.728Z,70.98
2022-10-13T22:36:39.920Z,71.03
2022-10-13T22:39:45.314Z,70.99
2022-10-13T22:42:49.440Z,71.21
2022-10-13T22:45:52.428Z,71.13
2022-10-13T22:48:56.369Z,71.00
2022-10-13T22:51:59.588Z,70.99
2022-10-13T22:55:02.446Z,71.17
2022-10-13T22:58:08.380Z,71.10
2022-10-13T23:01:15.170Z,71.12
2022-10-13T23:04:17.994Z,71.32
2022-10-13T23:07:21.425Z,71.29
2022-10-13T23:10:24.598Z,71.28
2022-10-13T23:13:27.462Z,71.32
2022-10-13T23:16:33.092Z,71.33
2022-10-13T23:19:36.528Z,71.26
2022-10-13T23:22:39.613Z,71.38
2022-10-13T23:25:42.491Z,71.31
2022-10-13T23:28:45.405Z,71.39
2022-10-13T23:31:48.349Z,71.37
2022-10-13T23:34:51.245Z,71.43
2022-10-13T23:37:55.851Z,71.25
2022-10-13T23:41:08.200Z,71.41
2022-10-13T23:44:12.370Z,71.38
2022-10-13T23:47:15.266Z,71.51
2022-10-13T23:50:18.108Z,71.35
2022-10-13T23:53:21.625Z,71.39
2022-10-13T23:56:25.348Z,71.50
2022-10-13T23:59:28.230Z,71.49
